Time;durP1;ratioP1;P1;durP2;ratioP2;P2;SDS_P1;SDS_P2;PMS_P1;PMS_P2;Temp;Humidity;BMP_temperature;BMP_pressure;BME280_temperature;BME280_humidity;BME280_pressure;Samples;Min_cycle;Max_cycle;Signal;HPM_P1;HPM_P2
2021/05/18 00:00:25;;;;;;;1.53;0.80;;;10.70;99.90;;;;;;5052814;28;20204;-80
2021/05/18 00:02:53;;;;;;;0.77;0.77;;;10.80;99.90;;;;;;5053508;28;20625;-81
2021/05/18 00:05:21;;;;;;;0.60;0.60;;;10.60;99.90;;;;;;5053319;28;21198;-80
2021/05/18 00:07:54;;;;;;;1.00;0.60;;;10.70;99.90;;;;;;5053059;28;20192;-80
2021/05/18 00:13:05;;;;;;;1.05;0.50;;;10.70;99.90;;;;;;5052717;28;20210;-81
2021/05/18 00:15:32;;;;;;;1.02;0.80;;;10.90;99.90;;;;;;5052829;28;20196;-80
2021/05/18 00:18:00;;;;;;;0.88;0.70;;;11.00;99.90;;;;;;5046556;28;20211;-81
2021/05/18 00:20:27;;;;;;;1.90;0.80;;;10.90;99.90;;;;;;5051938;28;20246;-81
2021/05/18 00:22:53;;;;;;;1.17;0.80;;;10.70;99.90;;;;;;5052669;28;20661;-81
2021/05/18 00:25:20;;;;;;;0.50;0.50;;;10.80;99.90;;;;;;5052615;28;20727;-81
2021/05/18 00:27:46;;;;;;;0.60;0.60;;;10.80;99.90;;;;;;5052740;28;20809;-81
2021/05/18 00:30:15;;;;;;;0.93;0.80;;;10.90;99.90;;;;;;5052341;28;20251;-81
2021/05/18 00:32:41;;;;;;;2.25;1.05;;;11.00;99.90;;;;;;5052768;28;20626;-81
2021/05/18 00:35:11;;;;;;;1.90;0.68;;;10.90;99.90;;;;;;5051348;28;20208;-81
2021/05/18 00:37:37;;;;;;;0.60;0.60;;;10.80;99.90;;;;;;5052250;28;20212;-81
2021/05/18 00:40:06;;;;;;;1.00;0.73;;;10.80;99.90;;;;;;5051609;28;20266;-81
2021/05/18 00:42:43;;;;;;;0.60;0.60;;;10.70;99.90;;;;;;5051989;28;20636;-81
2021/05/18 00:45:10;;;;;;;0.82;0.80;;;10.70;99.90;;;;;;5051924;28;20657;-81
2021/05/18 00:47:37;;;;;;;0.80;0.80;;;10.90;99.90;;;;;;5052673;28;20253;-80
2021/05/18 00:50:04;;;;;;;1.03;0.90;;;11.10;99.90;;;;;;5051725;28;20200;-80
2021/05/18 00:52:31;;;;;;;2.60;0.80;;;11.10;99.90;;;;;;5051570;28;20650;-80
2021/05/18 00:55:04;;;;;;;0.70;0.70;;;10.80;99.90;;;;;;5052582;28;21038;-80
2021/05/18 01:00:21;;;;;;;1.27;0.80;;;10.80;99.90;;;;;;5030235;28;20227;-80
2021/05/18 01:02:49;;;;;;;1.07;0.83;;;10.90;99.90;;;;;;5052096;28;20621;-80
2021/05/18 01:05:19;;;;;;;2.10;0.60;;;10.60;99.90;;;;;;5052305;28;20630;-80
2021/05/18 01:07:47;;;;;;;1.37;1.07;;;10.70;99.90;;;;;;5051945;28;20630;-80
2021/05/18 01:10:17;;;;;;;0.60;0.60;;;10.50;99.90;;;;;;5048233;28;20633;-80
2021/05/18 01:12:45;;;;;;;1.48;0.90;;;10.50;99.90;;;;;;5049093;28;20246;-80
2021/05/18 01:15:13;;;;;;;0.90;0.90;;;10.60;99.90;;;;;;5047026;28;20235;-80
2021/05/18 01:17:41;;;;;;;0.60;0.60;;;10.80;99.90;;;;;;5051468;28;20665;-80
2021/05/18 01:20:11;;;;;;;0.73;0.73;;;10.90;99.90;;;;;;5051373;28;20757;-80
2021/05/18 01:22:44;;;;;;;0.80;0.80;;;11.00;99.90;;;;;;5051206;28;20191;-80
2021/05/18 01:25:13;;;;;;;1.10;1.00;;;11.00;99.90;;;;;;5051645;28;20665;-80
2021/05/18 01:27:41;;;;;;;1.20;0.73;;;11.00;99.90;;;;;;5041456;28;20683;-80
2021/05/18 01:30:10;;;;;;;0.50;0.50;;;10.90;99.90;;;;;;5050944;28;20968;-80
2021/05/18 01:32:39;;;;;;;0.70;0.70;;;10.90;99.90;;;;;;5050981;28;20630;-80
2021/05/18 01:35:08;;;;;;;0.97;0.90;;;10.90;99.90;;;;;;5050085;28;20618;-81
2021/05/18 01:37:48;;;;;;;1.57;0.83;;;10.70;99.90;;;;;;5051216;28;20634;-81
2021/05/18 01:42:46;;;;;;;0.63;0.63;;;10.70;99.90;;;;;;5050231;28;20646;-81
2021/05/18 01:43:15;;;;;;;0.70;0.70;;;10.60;99.90;;;;;;5051155;28;20630;-81
2021/05/18 01:45:44;;;;;;;1.50;1.00;;;10.30;99.90;;;;;;5051292;28;20630;-81
2021/05/18 01:48:15;;;;;;;1.60;0.90;;;10.30;99.90;;;;;;5051444;28;20225;-81
2021/05/18 01:50:45;;;;;;;0.70;0.70;;;10.20;99.90;;;;;;5050540;28;20629;-80
2021/05/18 01:53:15;;;;;;;1.10;1.00;;;10.20;99.90;;;;;;5050369;28;20319;-80
2021/05/18 01:55:52;;;;;;;0.80;0.80;;;10.40;99.90;;;;;;5050911;28;20579;-80
2021/05/18 01:58:20;;;;;;;0.63;0.63;;;10.50;99.90;;;;;;5050932;28;20217;-80
2021/05/18 02:00:48;;;;;;;0.68;0.68;;;10.60;99.90;;;;;;5050152;28;20634;-80
2021/05/18 02:03:16;;;;;;;1.00;0.70;;;10.60;99.90;;;;;;5050430;28;20227;-80
2021/05/18 02:05:45;;;;;;;1.15;0.80;;;10.60;99.90;;;;;;5050508;28;20642;-80
2021/05/18 02:08:15;;;;;;;1.10;1.00;;;10.50;99.90;;;;;;5050468;28;20673;-81
2021/05/18 02:10:42;;;;;;;0.73;0.73;;;10.40;99.90;;;;;;5050117;28;20634;-80
2021/05/18 02:13:10;;;;;;;1.10;1.00;;;10.40;99.90;;;;;;5050978;28;20210;-80
2021/05/18 02:15:45;;;;;;;0.80;0.77;;;10.40;99.90;;;;;;5050305;28;20711;-81
2021/05/18 02:21:20;;;;;;;0.70;0.70;;;10.30;99.90;;;;;;5048715;28;20200;-80
2021/05/18 02:26:38;;;;;;;3.20;0.82;;;10.40;99.90;;;;;;5030061;28;20796;-80
2021/05/18 02:29:05;;;;;;;0.80;0.80;;;10.60;99.90;;;;;;5049807;28;20196;-81
2021/05/18 02:31:32;;;;;;;0.80;0.80;;;10.60;99.90;;;;;;5049985;28;20721;-80
2021/05/18 02:33:58;;;;;;;0.80;0.80;;;10.70;99.90;;;;;;5049853;28;20697;-80
2021/05/18 02:36:27;;;;;;;1.85;1.23;;;10.70;99.90;;;;;;5041331;28;20734;-80
2021/05/18 02:38:55;;;;;;;1.00;1.00;;;10.70;99.90;;;;;;5049475;28;20262;-80
2021/05/18 02:41:22;;;;;;;0.83;0.83;;;10.60;99.90;;;;;;5050211;28;20618;-80
2021/05/18 02:43:52;;;;;;;1.13;1.03;;;10.60;99.90;;;;;;5050316;28;20630;-80
2021/05/18 02:49:07;;;;;;;1.37;0.73;;;10.60;99.90;;;;;;5050379;28;21115;-80
2021/05/18 02:49:14;;;;;;;0.80;0.80;;;10.50;99.90;;;;;;5049372;28;20809;-80
2021/05/18 02:51:42;;;;;;;2.17;1.10;;;10.40;99.90;;;;;;5049962;28;20250;-80
2021/05/18 02:54:11;;;;;;;0.80;0.80;;;10.30;99.90;;;;;;5049774;28;20200;-80
2021/05/18 02:56:42;;;;;;;0.60;0.60;;;10.40;99.90;;;;;;5050167;28;20208;-80
2021/05/18 02:59:13;;;;;;;0.80;0.80;;;10.30;99.90;;;;;;5049303;28;20654;-80
2021/05/18 03:01:40;;;;;;;0.88;0.80;;;10.40;99.90;;;;;;5049777;28;21187;-80
2021/05/18 03:04:06;;;;;;;0.70;0.70;;;10.50;99.90;;;;;;5049947;28;20549;-80
2021/05/18 03:06:33;;;;;;;1.67;1.20;;;10.50;99.90;;;;;;5050032;28;20660;-78
2021/05/18 03:09:00;;;;;;;1.00;0.90;;;10.60;99.90;;;;;;5049077;28;20628;-78
2021/05/18 03:11:28;;;;;;;0.90;0.80;;;10.60;99.90;;;;;;5049814;28;20610;-79
2021/05/18 03:13:54;;;;;;;0.80;0.80;;;10.70;99.90;;;;;;5049876;28;20630;-79
2021/05/18 03:16:22;;;;;;;1.60;0.90;;;10.80;99.90;;;;;;5049877;28;20262;-80
2021/05/18 03:18:48;;;;;;;0.83;0.80;;;10.60;99.90;;;;;;5049160;28;20653;-79
2021/05/18 03:21:14;;;;;;;1.13;1.10;;;10.60;99.90;;;;;;5049994;28;20614;-79
2021/05/18 03:23:41;;;;;;;0.93;0.93;;;10.60;99.90;;;;;;5049288;28;20633;-80
2021/05/18 03:26:07;;;;;;;0.70;0.70;;;10.40;99.90;;;;;;5049853;28;20601;-80
2021/05/18 03:28:34;;;;;;;0.97;0.97;;;10.30;99.90;;;;;;5049096;28;20626;-79
2021/05/18 03:31:15;;;;;;;0.80;0.80;;;10.40;99.90;;;;;;5049648;28;21168;-79
2021/05/18 03:36:25;;;;;;;1.45;1.35;;;10.50;99.90;;;;;;5052139;28;20633;-80
2021/05/18 03:38:55;;;;;;;0.95;0.90;;;10.40;99.90;;;;;;5052978;28;20224;-79
2021/05/18 03:41:24;;;;;;;1.10;1.00;;;10.40;99.90;;;;;;5053244;28;20767;-80
2021/05/18 03:44:00;;;;;;;0.80;0.70;;;10.30;99.90;;;;;;5053620;28;20614;-80
2021/05/18 03:54:50;;;;;;;1.27;1.17;;;10.20;99.90;;;;;;5045134;28;20231;-79
2021/05/18 04:02:56;;;;;;;0.90;0.90;;;10.30;99.90;;;;;;5054104;28;20211;-79
2021/05/18 04:19:07;;;;;;;0.90;0.90;;;10.40;99.90;;;;;;5051964;28;20227;-79
2021/05/18 04:21:46;;;;;;;1.02;0.93;;;10.40;99.90;;;;;;5053029;28;20212;-79
2021/05/18 04:41:12;;;;;;;1.00;0.80;;;11.10;99.90;;;;;;5052205;28;20264;-79
2021/05/18 04:51:59;;;;;;;1.10;1.00;;;11.20;99.40;;;;;;5051798;28;20208;-79
2021/05/18 04:59:56;;;;;;;1.17;1.00;;;11.10;99.20;;;;;;5051620;28;21212;-79
2021/05/18 05:07:58;;;;;;;2.07;1.10;;;11.00;99.90;;;;;;5051017;28;21423;-79
2021/05/18 05:12:17;;;;;;;2.93;2.73;;;11.20;99.80;;;;;;5045560;28;20614;-79
2021/05/18 05:16:00;;;;;;;0.67;0.67;;;11.10;98.70;;;;;;5051937;28;20744;-79
2021/05/18 05:18:26;;;;;;;0.73;0.73;;;11.10;98.20;;;;;;5051563;28;20661;-79
2021/05/18 05:20:53;;;;;;;1.13;1.03;;;11.10;98.50;;;;;;5051598;28;20996;-79
2021/05/18 05:23:20;;;;;;;2.20;0.90;;;11.10;99.00;;;;;;5051705;28;20662;-79
2021/05/18 05:25:46;;;;;;;0.97;0.97;;;10.90;98.90;;;;;;5051978;28;20942;-80
2021/05/18 05:28:13;;;;;;;1.40;1.10;;;10.90;99.20;;;;;;5052195;28;20994;-80
2021/05/18 05:30:39;;;;;;;0.90;0.90;;;10.90;99.90;;;;;;5049923;28;20611;-80
2021/05/18 05:33:06;;;;;;;0.73;0.73;;;10.90;99.90;;;;;;5046298;28;20626;-80
2021/05/18 05:35:33;;;;;;;1.80;0.93;;;11.10;99.90;;;;;;5048022;28;20634;-81
2021/05/18 05:38:00;;;;;;;1.03;1.03;;;11.00;99.90;;;;;;5046970;28;20626;-81
2021/05/18 05:40:27;;;;;;;2.13;0.70;;;11.10;99.90;;;;;;5050698;28;20650;-80
2021/05/18 05:42:53;;;;;;;1.20;1.10;;;11.10;99.90;;;;;;5050956;28;21203;-80
2021/05/18 05:45:20;;;;;;;1.40;1.20;;;10.90;99.90;;;;;;5050929;28;20644;-80
2021/05/18 05:47:46;;;;;;;1.40;1.30;;;11.00;99.90;;;;;;5048031;28;20626;-80
2021/05/18 05:50:13;;;;;;;5.93;1.17;;;11.10;99.90;;;;;;5050468;28;20696;-80
2021/05/18 05:52:40;;;;;;;1.90;1.70;;;10.90;99.90;;;;;;5050432;28;20626;-80
2021/05/18 05:55:09;;;;;;;1.43;1.33;;;10.70;99.90;;;;;;5049540;28;20799;-80
2021/05/18 05:57:36;;;;;;;1.37;1.17;;;10.70;99.90;;;;;;5047342;28;21187;-79
2021/05/18 06:00:07;;;;;;;1.80;1.70;;;10.90;99.90;;;;;;5030474;28;21037;-80
2021/05/18 06:02:34;;;;;;;1.53;1.43;;;11.00;99.90;;;;;;5037449;28;20636;-81
2021/05/18 06:05:01;;;;;;;4.23;1.80;;;11.10;99.90;;;;;;5050327;28;20745;-83
2021/05/18 06:07:28;;;;;;;1.30;1.20;;;11.10;99.90;;;;;;5040474;28;20619;-82
2021/05/18 06:09:59;;;;;;;1.93;1.70;;;11.00;99.90;;;;;;5046718;28;20234;-82
2021/05/18 06:12:39;;;;;;;1.60;1.50;;;11.00;99.90;;;;;;5049757;28;20680;-83
2021/05/18 06:15:27;;;;;;;1.47;1.17;;;11.00;99.90;;;;;;5046828;28;20715;-82
2021/05/18 06:34:55;;;;;;;1.40;1.30;;;10.70;99.90;;;;;;5049214;28;20606;-83
2021/05/18 06:43:00;;;;;;;1.60;1.50;;;11.10;99.90;;;;;;5050315;28;20607;-83
2021/05/18 06:46:01;;;;;;;1.87;1.77;;;11.20;99.90;;;;;;5049731;28;20629;-83
2021/05/18 06:48:28;;;;;;;1.80;1.70;;;11.30;99.90;;;;;;5050353;28;20626;-82
2021/05/18 06:50:55;;;;;;;1.60;1.50;;;11.30;99.90;;;;;;5049718;28;20668;-84
2021/05/18 06:53:22;;;;;;;2.63;2.27;;;11.70;99.90;;;;;;5050427;28;21364;-83
2021/05/18 06:55:51;;;;;;;2.00;1.80;;;11.80;99.90;;;;;;5049743;28;20672;-82
2021/05/18 06:58:35;;;;;;;1.70;1.60;;;11.90;99.90;;;;;;5050469;28;20624;-83
2021/05/18 07:01:02;;;;;;;2.10;2.00;;;11.80;99.90;;;;;;5050062;28;20615;-82
2021/05/18 07:03:34;;;;;;;2.53;1.67;;;11.70;99.90;;;;;;5049583;28;20650;-82
2021/05/18 07:06:08;;;;;;;1.30;1.20;;;11.70;99.90;;;;;;5049805;28;20622;-82
2021/05/18 07:11:19;;;;;;;0.90;0.90;;;11.90;99.90;;;;;;5050399;28;20598;-81
2021/05/18 07:13:46;;;;;;;1.23;0.93;;;12.00;99.90;;;;;;5049635;28;20622;-81
2021/05/18 07:16:13;;;;;;;1.53;1.43;;;12.10;99.90;;;;;;5049846;28;20652;-82
2021/05/18 07:18:40;;;;;;;1.40;1.30;;;12.30;99.90;;;;;;5050058;28;20633;-82
2021/05/18 07:21:06;;;;;;;1.90;1.23;;;12.30;99.90;;;;;;5049863;28;20610;-81
2021/05/18 07:23:34;;;;;;;1.53;1.43;;;12.40;99.90;;;;;;5050122;28;20619;-81
2021/05/18 07:26:00;;;;;;;1.53;1.43;;;12.70;99.90;;;;;;5049185;28;20661;-82
2021/05/18 07:28:30;;;;;;;1.20;1.10;;;12.80;99.40;;;;;;5047329;28;21225;-82
2021/05/18 07:30:57;;;;;;;2.30;2.20;;;12.90;99.10;;;;;;5049772;28;20724;-81
2021/05/18 07:33:24;;;;;;;1.67;1.57;;;12.70;97.90;;;;;;5049042;28;20633;-81
2021/05/18 07:35:55;;;;;;;1.40;1.30;;;12.50;98.10;;;;;;5049976;28;20626;-81
2021/05/18 07:38:22;;;;;;;1.83;1.40;;;12.90;99.00;;;;;;5049273;28;20630;-81
2021/05/18 07:40:48;;;;;;;1.47;1.37;;;13.30;98.90;;;;;;5048596;28;20661;-81
2021/05/18 07:43:17;;;;;;;2.20;1.47;;;13.50;98.70;;;;;;5049613;28;20851;-81
2021/05/18 07:45:48;;;;;;;1.67;1.57;;;13.60;98.10;;;;;;5045804;28;20707;-81
2021/05/18 07:48:20;;;;;;;2.67;2.13;;;13.40;96.60;;;;;;5043934;28;20642;-81
2021/05/18 07:50:50;;;;;;;1.70;1.60;;;13.40;97.20;;;;;;5048806;28;20836;-82
2021/05/18 08:07:08;;;;;;;1.90;1.80;;;12.00;96.40;;;;;;5002316;28;20634;-81
2021/05/18 08:09:40;;;;;;;1.87;1.50;;;12.00;96.60;;;;;;5049517;28;20630;-81
2021/05/18 08:12:09;;;;;;;2.10;1.33;;;11.90;96.70;;;;;;5049245;28;20638;-81
2021/05/18 08:14:38;;;;;;;6.80;1.63;;;11.70;96.70;;;;;;5050360;28;20990;-81
2021/05/18 08:17:17;;;;;;;1.30;1.20;;;11.70;97.00;;;;;;5047999;28;20710;-81
2021/05/18 10:35:54;;;;;;;2.10;1.87;;;13.60;96.80;;;;;;5035485;28;20607;-83
2021/05/18 10:38:24;;;;;;;3.40;2.07;;;13.90;99.10;;;;;;5048184;28;20679;-83
2021/05/18 10:40:51;;;;;;;1.57;1.30;;;14.20;98.70;;;;;;5049170;28;20790;-83
2021/05/18 10:43:26;;;;;;;1.83;1.20;;;14.00;96.20;;;;;;5049692;28;21172;-82
2021/05/18 10:46:05;;;;;;;6.03;1.47;;;14.20;94.70;;;;;;5050574;28;20659;-83
2021/05/18 10:49:02;;;;;;;1.50;0.70;;;14.40;94.50;;;;;;5049509;28;20703;-82
2021/05/18 10:51:35;;;;;;;1.10;1.00;;;14.70;92.00;;;;;;5049339;28;20716;-82
2021/05/18 10:54:24;;;;;;;2.90;1.20;;;14.70;89.70;;;;;;5049757;28;21184;-82
2021/05/18 10:57:18;;;;;;;1.30;1.20;;;15.20;91.80;;;;;;5041041;28;20639;-82
2021/05/18 10:59:48;;;;;;;1.10;1.10;;;15.50;91.30;;;;;;5049472;28;20756;-82
2021/05/18 11:02:17;;;;;;;1.10;1.00;;;16.00;84.60;;;;;;5050074;28;20720;-83
2021/05/18 11:04:44;;;;;;;1.33;1.23;;;16.30;84.70;;;;;;5033568;28;20672;-83
2021/05/18 11:07:12;;;;;;;1.30;1.20;;;16.10;82.40;;;;;;5045030;28;20631;-83
2021/05/18 11:09:40;;;;;;;1.20;1.03;;;16.10;80.50;;;;;;5049782;28;20611;-84
2021/05/18 11:12:12;;;;;;;1.70;1.07;;;16.20;78.30;;;;;;5049769;28;20614;-83
2021/05/18 11:14:41;;;;;;;4.97;0.90;;;16.50;78.10;;;;;;5050153;28;21197;-83
2021/05/18 11:17:24;;;;;;;3.03;1.00;;;16.60;75.20;;;;;;5049333;28;20625;-83
2021/05/18 11:20:01;;;;;;;0.83;0.83;;;16.60;75.50;;;;;;5049342;28;20646;-84
2021/05/18 11:25:26;;;;;;;1.17;0.80;;;17.10;73.80;;;;;;5048321;28;20753;-83
2021/05/18 11:28:04;;;;;;;0.97;0.93;;;17.50;71.90;;;;;;5048706;28;20717;-82
2021/05/18 11:30:32;;;;;;;1.23;0.87;;;16.80;69.50;;;;;;5048923;28;20991;-82
2021/05/18 11:33:00;;;;;;;1.23;0.70;;;16.90;72.50;;;;;;5049706;28;20630;-83
2021/05/18 11:35:27;;;;;;;3.30;1.00;;;17.50;72.30;;;;;;5050173;28;20626;-83
2021/05/18 11:38:03;;;;;;;1.90;0.83;;;17.90;68.10;;;;;;5049532;28;20621;-83
2021/05/18 11:40:38;;;;;;;0.57;0.57;;;18.10;63.80;;;;;;5048080;28;21191;-83
2021/05/18 11:43:13;;;;;;;0.70;0.57;;;17.50;64.50;;;;;;5048702;28;20642;-82
2021/05/18 11:45:40;;;;;;;4.73;0.70;;;16.30;61.30;;;;;;5036469;28;20626;-83
2021/05/18 11:48:13;;;;;;;1.37;0.93;;;15.20;78.70;;;;;;5048097;28;20640;-84
2021/05/18 11:50:39;;;;;;;0.77;0.70;;;14.60;84.40;;;;;;5049560;28;20936;-85
2021/05/18 11:53:06;;;;;;;3.07;0.70;;;13.80;83.10;;;;;;5049655;28;20952;-84
2021/05/18 11:55:34;;;;;;;0.90;0.60;;;13.50;84.80;;;;;;5053686;28;21029;-85
2021/05/18 11:58:02;;;;;;;0.80;0.80;;;13.20;80.70;;;;;;5053692;28;20612;-84
2021/05/18 12:00:32;;;;;;;0.70;0.43;;;13.20;84.80;;;;;;5051026;28;20748;-84
2021/05/18 12:03:03;;;;;;;3.90;2.20;;;13.50;81.70;;;;;;5044969;28;20645;-85
2021/05/18 12:05:31;;;;;;;0.70;0.70;;;15.00;83.50;;;;;;5053499;28;20641;-84
2021/05/18 12:07:57;;;;;;;2.00;0.73;;;15.50;72.40;;;;;;5052005;28;20610;-83
2021/05/18 12:10:34;;;;;;;1.17;0.50;;;17.20;78.80;;;;;;5052537;28;20610;-84
2021/05/18 12:13:05;;;;;;;2.10;0.70;;;18.30;67.40;;;;;;5053082;28;20621;-83
2021/05/18 12:15:31;;;;;;;1.30;0.80;;;18.80;64.60;;;;;;5045379;28;20743;-83
2021/05/18 12:17:59;;;;;;;1.33;0.80;;;19.20;64.30;;;;;;5051745;28;20614;-84
2021/05/18 12:20:26;;;;;;;1.90;1.30;;;22.50;60.20;;;;;;5050563;28;20656;-84
2021/05/18 12:22:53;;;;;;;0.80;0.80;;;27.00;54.00;;;;;;5051247;28;20683;-84
2021/05/18 12:25:35;;;;;;;0.60;0.50;;;30.40;46.40;;;;;;5050648;28;20725;-84
2021/05/18 12:28:11;;;;;;;0.50;0.40;;;32.90;41.00;;;;;;5045151;28;20735;-82
2021/05/18 12:30:40;;;;;;;3.23;0.50;;;34.50;35.30;;;;;;5037364;28;20649;-82
2021/05/18 12:33:07;;;;;;;0.77;0.60;;;35.00;34.70;;;;;;5049164;28;20607;-83
2021/05/18 12:35:34;;;;;;;0.70;0.50;;;36.30;32.00;;;;;;5050710;28;20618;-82
2021/05/18 12:38:12;;;;;;;1.03;0.40;;;35.50;29.30;;;;;;5052164;28;20712;-83
2021/05/18 12:40:43;;;;;;;1.23;0.70;;;35.00;30.50;;;;;;5051559;28;20642;-82
2021/05/18 12:43:12;;;;;;;1.40;0.67;;;33.60;30.00;;;;;;5051652;28;20622;-82
2021/05/18 12:45:39;;;;;;;1.03;0.70;;;33.80;29.50;;;;;;5052131;28;21080;-83
2021/05/18 12:48:08;;;;;;;1.30;0.70;;;32.60;32.00;;;;;;5051495;28;21024;-82
2021/05/18 12:50:39;;;;;;;1.97;0.83;;;29.10;32.70;;;;;;5051962;28;20729;-82
2021/05/18 12:53:21;;;;;;;1.90;0.90;;;25.30;36.50;;;;;;5052370;28;20679;-82
2021/05/18 12:55:49;;;;;;;2.60;0.80;;;22.30;42.20;;;;;;5051539;28;21233;-84
2021/05/18 12:58:26;;;;;;;0.73;0.73;;;20.30;51.60;;;;;;5051995;28;20677;-84
2021/05/18 13:01:04;;;;;;;0.80;0.80;;;19.30;53.20;;;;;;5050308;28;20656;-84
2021/05/18 13:03:31;;;;;;;0.73;0.73;;;18.90;55.30;;;;;;5050837;28;20623;-83
2021/05/18 13:05:58;;;;;;;1.17;0.80;;;18.70;56.20;;;;;;5049641;28;20617;-83
2021/05/18 13:08:31;;;;;;;1.63;1.03;;;18.20;57.60;;;;;;5050461;28;20609;-83
2021/05/18 13:11:10;;;;;;;1.10;0.70;;;17.90;58.20;;;;;;5046445;28;20652;-82
2021/05/18 13:13:48;;;;;;;0.83;0.83;;;17.50;58.10;;;;;;5051544;28;20647;-83
2021/05/18 13:16:17;;;;;;;2.07;0.73;;;17.10;58.70;;;;;;5051779;28;21484;-84
2021/05/18 13:18:55;;;;;;;1.77;0.80;;;17.00;59.80;;;;;;5051153;28;21113;-82
2021/05/18 13:21:24;;;;;;;0.70;0.70;;;16.70;59.80;;;;;;5050409;28;20756;-82
2021/05/18 13:24:12;;;;;;;0.70;0.70;;;16.70;61.80;;;;;;5051464;28;20618;-82
2021/05/18 13:26:40;;;;;;;1.07;0.80;;;17.50;58.60;;;;;;5051728;28;20729;-82
2021/05/18 13:29:08;;;;;;;0.90;0.80;;;20.10;56.90;;;;;;5045319;28;20670;-82
2021/05/18 13:31:37;;;;;;;0.80;0.60;;;22.10;54.40;;;;;;5050388;28;21036;-82
2021/05/18 13:34:04;;;;;;;0.73;0.47;;;24.20;49.20;;;;;;5050556;28;20622;-83
2021/05/18 13:36:33;;;;;;;0.60;0.50;;;25.30;45.60;;;;;;5051236;28;20609;-83
2021/05/18 13:39:01;;;;;;;1.37;0.90;;;25.80;42.50;;;;;;5051709;28;21189;-82
2021/05/18 13:41:27;;;;;;;0.90;0.50;;;26.50;43.50;;;;;;5050889;28;20731;-83
2021/05/18 13:43:55;;;;;;;0.80;0.53;;;27.70;40.40;;;;;;5051293;28;20636;-83
2021/05/18 13:46:21;;;;;;;1.17;0.80;;;27.70;39.60;;;;;;5045353;28;20645;-82
2021/05/18 13:48:48;;;;;;;4.90;1.03;;;28.40;39.40;;;;;;5050814;28;20634;-82
2021/05/18 13:51:16;;;;;;;3.13;0.43;;;28.80;39.40;;;;;;5050939;28;20606;-82
2021/05/18 13:53:45;;;;;;;1.07;0.63;;;28.10;38.90;;;;;;5051116;28;20676;-83
2021/05/18 13:56:12;;;;;;;0.50;0.37;;;27.30;39.90;;;;;;5050631;28;21230;-82
2021/05/18 13:58:38;;;;;;;0.87;0.67;;;26.10;41.60;;;;;;5050388;28;20675;-82
2021/05/18 14:01:06;;;;;;;1.47;0.83;;;24.20;43.60;;;;;;5051029;28;20642;-82
2021/05/18 14:03:33;;;;;;;0.57;0.57;;;22.00;46.20;;;;;;5051162;28;20990;-82
2021/05/18 14:06:00;;;;;;;0.60;0.50;;;20.10;47.00;;;;;;5050609;28;20976;-83
2021/05/18 14:08:30;;;;;;;0.50;0.50;;;18.80;47.00;;;;;;5050107;28;20637;-83
2021/05/18 14:11:03;;;;;;;0.50;0.50;;;17.30;49.00;;;;;;5050827;28;21182;-82
2021/05/18 14:13:33;;;;;;;0.50;0.50;;;16.60;51.10;;;;;;5050665;28;20986;-82
2021/05/18 14:16:01;;;;;;;0.60;0.60;;;16.10;53.30;;;;;;5050098;28;20646;-82
2021/05/18 14:18:28;;;;;;;1.17;0.53;;;16.60;56.60;;;;;;5047362;28;20959;-82
2021/05/18 14:20:55;;;;;;;1.20;0.60;;;17.80;56.30;;;;;;5050374;28;20670;-83
2021/05/18 14:23:23;;;;;;;0.70;0.50;;;19.40;53.60;;;;;;5041080;28;21357;-84
2021/05/18 14:25:51;;;;;;;0.53;0.40;;;20.10;49.70;;;;;;5050737;28;20619;-83
2021/05/18 14:28:18;;;;;;;0.93;0.80;;;20.60;50.40;;;;;;5051099;28;20614;-82
2021/05/18 14:30:46;;;;;;;0.80;0.53;;;20.70;47.90;;;;;;5049576;28;20622;-83
2021/05/18 14:33:12;;;;;;;0.50;0.50;;;20.90;47.60;;;;;;5050139;28;20672;-82
2021/05/18 14:35:40;;;;;;;0.70;0.63;;;20.40;47.60;;;;;;5050680;28;21267;-83
2021/05/18 14:38:10;;;;;;;1.20;0.60;;;19.00;46.80;;;;;;5032430;28;20614;-82
2021/05/18 14:46:08;;;;;;;1.37;0.50;;;18.50;49.00;;;;;;5041154;28;20618;-83
2021/05/18 14:57:14;;;;;;;0.70;0.70;;;17.50;49.70;;;;;;5029130;28;20630;-85
2021/05/18 14:59:41;;;;;;;0.70;0.50;;;17.50;50.10;;;;;;5050031;28;20647;-84
2021/05/18 15:02:07;;;;;;;1.07;0.70;;;17.70;50.30;;;;;;5050680;28;20610;-85
2021/05/18 15:04:35;;;;;;;0.70;0.40;;;17.70;47.80;;;;;;5050252;28;20624;-84
2021/05/18 15:07:07;;;;;;;0.60;0.60;;;17.80;49.80;;;;;;5049185;28;20654;-84
2021/05/18 15:09:35;;;;;;;0.60;0.60;;;17.40;49.00;;;;;;5050762;28;20715;-84
2021/05/18 15:12:05;;;;;;;0.60;0.53;;;16.80;49.90;;;;;;5050533;28;20680;-85
2021/05/18 15:14:31;;;;;;;0.90;0.70;;;16.60;51.00;;;;;;5051136;28;21107;-84
2021/05/18 15:16:58;;;;;;;0.93;0.83;;;16.30;51.50;;;;;;5050429;28;20650;-84
2021/05/18 15:19:26;;;;;;;0.80;0.50;;;16.40;53.20;;;;;;5050425;28;20610;-83
2021/05/18 15:21:53;;;;;;;0.80;0.80;;;16.70;52.20;;;;;;5050135;28;20626;-84
2021/05/18 15:24:21;;;;;;;2.47;0.80;;;17.20;51.90;;;;;;5048671;28;20631;-84
2021/05/18 15:26:47;;;;;;;0.80;0.80;;;17.00;51.10;;;;;;5050472;28;20617;-84
2021/05/18 15:29:15;;;;;;;3.00;0.60;;;17.10;50.30;;;;;;5053572;28;20613;-83
2021/05/18 15:31:42;;;;;;;0.77;0.77;;;17.10;52.20;;;;;;5054002;28;20972;-85
2021/05/18 15:34:09;;;;;;;1.33;0.93;;;17.20;52.70;;;;;;5053830;28;21125;-84
2021/05/18 15:36:39;;;;;;;0.87;0.87;;;17.20;51.30;;;;;;5054090;28;20622;-83
2021/05/18 15:43:12;;;;;;;3.00;0.93;;;17.30;52.20;;;;;;5054543;28;20618;-85
2021/05/18 15:59:07;;;;;;;1.40;1.30;;;16.00;54.30;;;;;;5042187;28;20645;-85
2021/05/18 16:01:37;;;;;;;1.07;1.03;;;16.00;53.50;;;;;;5049753;28;20665;-86
2021/05/18 16:04:04;;;;;;;2.43;0.90;;;15.90;53.00;;;;;;5054292;28;20629;-85
2021/05/18 16:06:33;;;;;;;0.70;0.70;;;15.90;53.90;;;;;;5047196;28;20649;-84
2021/05/18 16:08:59;;;;;;;0.80;0.80;;;15.90;54.20;;;;;;5051924;28;21248;-86
2021/05/18 16:11:26;;;;;;;0.87;0.87;;;15.70;53.80;;;;;;5052367;28;20626;-86
2021/05/18 16:13:52;;;;;;;0.70;0.70;;;15.70;53.80;;;;;;5053270;28;20609;-86
2021/05/18 16:16:30;;;;;;;1.67;0.90;;;15.60;54.30;;;;;;5052846;28;20645;-86
2021/05/18 16:19:12;;;;;;;0.70;0.70;;;15.80;55.00;;;;;;5053862;28;20735;-86
2021/05/18 16:21:54;;;;;;;3.70;0.80;;;16.00;55.60;;;;;;5054169;28;21036;-87
2021/05/18 16:24:48;;;;;;;2.00;0.87;;;16.00;55.50;;;;;;5052639;28;20657;-87
2021/05/18 16:27:24;;;;;;;2.20;1.40;;;15.40;55.00;;;;;;5053620;28;20976;-86
2021/05/18 16:30:21;;;;;;;0.97;0.70;;;14.90;56.00;;;;;;5053759;28;20613;-87
2021/05/18 16:33:23;;;;;;;1.57;0.87;;;14.90;57.60;;;;;;5053697;28;20618;-87
2021/05/18 16:36:05;;;;;;;;;;;;;;;;;;;;;
2021/05/18 16:38:37;;;;;;;2.47;0.73;;;14.50;59.30;;;;;;5052333;28;20737;-85
2021/05/18 16:41:35;;;;;;;1.83;0.63;;;14.30;59.80;;;;;;5052834;28;21261;-86
2021/05/18 16:44:16;;;;;;;0.80;0.70;;;13.80;62.10;;;;;;5052556;28;20740;-86
2021/05/18 16:46:42;;;;;;;1.30;0.90;;;14.10;61.80;;;;;;5051953;28;20751;-85
2021/05/18 16:49:10;;;;;;;1.03;0.90;;;14.30;62.50;;;;;;5052516;28;20505;-85
2021/05/18 16:51:37;;;;;;;2.57;1.53;;;14.30;60.20;;;;;;5052879;28;20621;-86
2021/05/18 16:54:05;;;;;;;2.00;1.17;;;14.40;61.00;;;;;;5051994;28;20621;-86
2021/05/18 16:56:32;;;;;;;1.33;0.70;;;14.10;60.70;;;;;;5052373;28;21327;-88
2021/05/18 16:59:05;;;;;;;2.00;1.00;;;13.90;62.50;;;;;;5052370;28;20682;-87
2021/05/18 17:01:32;;;;;;;1.00;0.90;;;13.90;64.90;;;;;;5053234;28;20668;-86
2021/05/18 17:03:58;;;;;;;2.20;1.17;;;14.00;66.40;;;;;;5049545;28;20619;-86
2021/05/18 17:06:26;;;;;;;0.70;0.70;;;14.20;68.50;;;;;;5052219;28;20612;-86
2021/05/18 17:08:52;;;;;;;2.77;1.40;;;14.20;67.80;;;;;;5052182;28;20622;-86
2021/05/18 17:11:21;;;;;;;1.33;0.83;;;14.40;70.10;;;;;;5052601;28;20888;-86
2021/05/18 17:13:48;;;;;;;1.50;1.00;;;14.30;69.20;;;;;;5051102;28;21197;-87
2021/05/18 17:16:14;;;;;;;4.40;3.97;;;14.40;70.10;;;;;;5046665;28;20632;-87
2021/05/18 17:18:41;;;;;;;1.50;1.10;;;13.90;72.30;;;;;;5052239;28;21053;-87
2021/05/18 17:21:08;;;;;;;1.70;1.60;;;13.70;75.50;;;;;;5051857;28;20647;-86
2021/05/18 17:23:39;;;;;;;1.13;0.90;;;13.60;76.40;;;;;;5051994;28;20615;-86
2021/05/18 17:26:11;;;;;;;1.00;0.90;;;13.00;73.80;;;;;;5051279;28;20627;-86
2021/05/18 17:28:38;;;;;;;1.33;0.97;;;12.50;71.40;;;;;;5051036;28;20623;-85
2021/05/18 17:31:04;;;;;;;1.10;1.00;;;12.10;73.60;;;;;;5051643;28;20630;-86
2021/05/18 17:33:32;;;;;;;1.00;0.90;;;12.10;75.50;;;;;;5052243;28;20660;-86
2021/05/18 17:35:58;;;;;;;2.60;2.20;;;11.90;77.00;;;;;;5051698;28;20626;-86
2021/05/18 17:38:25;;;;;;;1.00;0.60;;;11.90;77.10;;;;;;5051912;28;21189;-85
2021/05/18 17:40:52;;;;;;;2.07;1.07;;;11.80;77.20;;;;;;5051772;28;20642;-86
2021/05/18 17:43:19;;;;;;;0.57;0.57;;;11.80;78.60;;;;;;5052451;28;20626;-85
2021/05/18 17:45:45;;;;;;;0.87;0.70;;;11.80;79.10;;;;;;5051670;28;20626;-86
2021/05/18 17:48:12;;;;;;;0.80;0.70;;;12.00;79.40;;;;;;5051541;28;20624;-85
2021/05/18 17:50:38;;;;;;;0.60;0.60;;;11.90;79.20;;;;;;5051515;28;20650;-85
2021/05/18 17:53:05;;;;;;;1.10;0.93;;;11.80;79.90;;;;;;5051412;28;20683;-85